Time;durP1;ratioP1;P1;durP2;ratioP2;P2;SDS_P1;SDS_P2;PMS_P1;PMS_P2;Temp;Humidity;BMP_temperature;BMP_pressure;BME280_temperature;BME280_humidity;BME280_pressure;Samples;Min_cycle;Max_cycle;Signal;HPM_P1;HPM_P2
2021/12/03 00:00:56;;;;;;;41.87;30.93;;;8.00;69.00;;;;;;5053003;28;20033;-64
2021/12/03 00:03:22;;;;;;;42.03;32.37;;;8.00;68.40;;;;;;5046854;28;20022;-64
2021/12/03 00:05:50;;;;;;;51.63;33.30;;;8.00;68.50;;;;;;5054285;28;20043;-64
2021/12/03 00:08:17;;;;;;;42.17;32.57;;;8.00;67.70;;;;;;5045237;28;20032;-63
2021/12/03 00:10:45;;;;;;;46.57;32.10;;;7.90;67.50;;;;;;5054686;28;20025;-63
2021/12/03 00:13:10;;;;;;;44.43;30.97;;;7.90;66.60;;;;;;5046793;28;20475;-63
2021/12/03 00:15:37;;;;;;;46.27;33.67;;;7.70;56.80;;;;;;5052092;28;20106;-63
2021/12/03 00:18:03;;;;;;;43.93;32.90;;;7.70;56.30;;;;;;5052798;28;20032;-63
2021/12/03 00:20:34;;;;;;;45.53;33.27;;;7.70;56.90;;;;;;5049713;28;20025;-63
2021/12/03 00:23:00;;;;;;;40.73;32.10;;;7.80;56.80;;;;;;5048399;28;20037;-63
2021/12/03 00:25:26;;;;;;;46.23;33.03;;;7.70;56.50;;;;;;5053048;28;20036;-63
2021/12/03 00:27:52;;;;;;;44.33;32.93;;;7.70;57.10;;;;;;5052323;28;20025;-63
2021/12/03 00:30:18;;;;;;;42.80;32.87;;;7.70;57.10;;;;;;5053569;28;20032;-62
2021/12/03 00:32:46;;;;;;;44.00;32.43;;;7.80;57.30;;;;;;5052879;28;20025;-62
2021/12/03 00:35:14;;;;;;;41.67;32.77;;;7.70;57.20;;;;;;5050207;28;20026;-63
2021/12/03 00:37:41;;;;;;;45.63;33.53;;;7.70;57.30;;;;;;5052326;28;20041;-62
2021/12/03 00:40:09;;;;;;;40.87;33.87;;;7.70;57.60;;;;;;5048679;28;20032;-63
2021/12/03 00:42:36;;;;;;;47.03;33.23;;;7.60;57.90;;;;;;5052929;28;20036;-63
2021/12/03 00:45:03;;;;;;;41.77;33.50;;;7.70;60.10;;;;;;5053931;28;20122;-63
2021/12/03 00:47:29;;;;;;;46.97;33.27;;;7.70;75.70;;;;;;5052367;28;20064;-63
2021/12/03 00:49:54;;;;;;;46.90;33.53;;;7.60;73.60;;;;;;5052339;28;20132;-62
2021/12/03 00:52:20;;;;;;;49.23;34.63;;;7.70;70.80;;;;;;5052281;28;20153;-63
2021/12/03 00:54:45;;;;;;;43.30;32.60;;;7.60;69.00;;;;;;5047603;28;20032;-63
2021/12/03 00:57:11;;;;;;;47.90;33.60;;;7.70;69.10;;;;;;5053712;28;20021;-63
2021/12/03 00:59:37;;;;;;;43.37;32.67;;;7.70;68.00;;;;;;5052794;28;20087;-63
2021/12/03 01:02:03;;;;;;;45.17;32.53;;;7.70;68.20;;;;;;5051576;28;20033;-63
2021/12/03 01:04:29;;;;;;;43.13;32.17;;;7.70;68.20;;;;;;5048293;28;20032;-62
2021/12/03 01:06:54;;;;;;;44.90;33.60;;;7.60;68.20;;;;;;5053492;28;20359;-63
2021/12/03 01:09:21;;;;;;;47.43;33.07;;;7.40;68.50;;;;;;5048041;28;20033;-62
2021/12/03 01:11:48;;;;;;;40.60;32.57;;;;;;;;;;5053263;28;20025;-63
2021/12/03 01:14:14;;;;;;;42.13;32.33;;;7.50;58.40;;;;;;5048216;28;20095;-62
2021/12/03 01:16:39;;;;;;;48.43;33.83;;;7.20;58.80;;;;;;5051732;28;20211;-62
2021/12/03 01:19:05;;;;;;;45.40;33.13;;;7.30;59.20;;;;;;5047938;28;20028;-63
2021/12/03 01:21:31;;;;;;;43.17;33.63;;;7.40;59.20;;;;;;5053296;28;20378;-63
2021/12/03 01:23:57;;;;;;;48.97;33.37;;;7.40;59.10;;;;;;5048855;28;20032;-63
2021/12/03 01:26:24;;;;;;;44.30;32.83;;;7.40;59.20;;;;;;5052774;28;20033;-62
2021/12/03 01:28:49;;;;;;;43.07;32.80;;;7.40;59.60;;;;;;5049308;28;20025;-63
2021/12/03 01:31:17;;;;;;;41.77;33.53;;;7.20;59.60;;;;;;5052920;28;20064;-62
2021/12/03 01:33:45;;;;;;;41.73;31.83;;;7.30;60.30;;;;;;5048856;28;20091;-62
2021/12/03 01:36:11;;;;;;;41.87;31.43;;;7.30;59.90;;;;;;5052543;28;20028;-63
2021/12/03 01:38:36;;;;;;;40.43;30.40;;;7.30;59.70;;;;;;5049397;28;20122;-63
2021/12/03 01:41:03;;;;;;;40.53;30.93;;;7.30;59.70;;;;;;5051631;28;20604;-62
2021/12/03 01:43:28;;;;;;;39.20;30.97;;;7.30;59.60;;;;;;5048659;28;20025;-62
2021/12/03 01:45:57;;;;;;;38.17;30.83;;;7.40;59.60;;;;;;5052800;28;20378;-63
2021/12/03 01:48:23;;;;;;;39.33;29.10;;;7.40;59.20;;;;;;5049060;28;20076;-63
2021/12/03 01:50:50;;;;;;;36.40;28.63;;;7.40;59.30;;;;;;5053122;28;20094;-63
2021/12/03 01:53:17;;;;;;;37.37;28.97;;;7.50;59.10;;;;;;5051633;28;20025;-63
2021/12/03 01:55:45;;;;;;;41.43;28.97;;;7.50;59.10;;;;;;5052710;28;20344;-63
2021/12/03 01:58:12;;;;;;;39.70;28.23;;;7.50;58.90;;;;;;5048313;28;20056;-62
2021/12/03 02:00:51;;;;;;;36.73;29.13;;;7.50;59.00;;;;;;5052505;28;20035;-63
2021/12/03 02:03:18;;;;;;;42.33;31.03;;;7.50;58.90;;;;;;5051460;28;20017;-63
2021/12/03 02:05:45;;;;;;;41.43;30.57;;;7.50;59.10;;;;;;5052061;28;20025;-62
2021/12/03 02:08:20;;;;;;;38.03;29.77;;;7.40;59.20;;;;;;5051529;28;20036;-63
2021/12/03 02:10:46;;;;;;;41.40;30.97;;;7.40;59.50;;;;;;5068138;28;20537;-63
2021/12/03 02:13:13;;;;;;;40.17;30.30;;;7.50;59.40;;;;;;5052305;28;20025;-62
2021/12/03 02:15:41;;;;;;;42.63;30.77;;;7.50;59.30;;;;;;5043427;28;20029;-63
2021/12/03 02:18:08;;;;;;;41.73;31.53;;;7.50;59.40;;;;;;5048906;28;20029;-62
2021/12/03 02:20:34;;;;;;;43.47;32.77;;;7.40;59.70;;;;;;5050676;28;20029;-62
2021/12/03 02:23:00;;;;;;;48.07;34.77;;;7.50;59.70;;;;;;5046691;28;20041;-63
2021/12/03 02:25:26;;;;;;;45.73;34.87;;;7.40;60.00;;;;;;5050827;28;20067;-63
2021/12/03 02:27:58;;;;;;;44.83;34.27;;;7.50;60.30;;;;;;5047017;28;20108;-63
2021/12/03 02:30:24;;;;;;;45.43;34.30;;;7.40;60.40;;;;;;5047143;28;20025;-63
2021/12/03 02:32:52;;;;;;;45.40;34.27;;;7.50;61.10;;;;;;5051960;28;20044;-63
2021/12/03 02:35:20;;;;;;;43.10;33.10;;;7.50;60.30;;;;;;5050430;28;20036;-63
2021/12/03 02:37:46;;;;;;;52.83;36.33;;;7.50;60.50;;;;;;5045550;28;20055;-63
2021/12/03 02:40:14;;;;;;;50.80;37.43;;;7.50;60.80;;;;;;5047733;28;20126;-63
2021/12/03 02:42:40;;;;;;;46.60;36.77;;;7.50;61.00;;;;;;5042274;28;20127;-63
2021/12/03 02:45:07;;;;;;;45.93;36.27;;;7.50;61.00;;;;;;5048012;28;20094;-64
2021/12/03 02:47:33;;;;;;;47.97;36.40;;;7.60;61.10;;;;;;5052281;28;20040;-63
2021/12/03 02:49:59;;;;;;;47.90;36.20;;;7.50;61.50;;;;;;5051350;28;20025;-63
2021/12/03 02:52:25;;;;;;;45.83;36.27;;;7.50;61.40;;;;;;5051170;28;20037;-63
2021/12/03 02:54:50;;;;;;;46.30;34.70;;;7.60;61.60;;;;;;5048559;28;20029;-63
2021/12/03 02:57:16;;;;;;;44.83;33.03;;;7.60;61.30;;;;;;5051786;28;20098;-63
2021/12/03 02:59:42;;;;;;;44.60;33.70;;;7.60;61.10;;;;;;5051198;28;20056;-63
2021/12/03 03:02:08;;;;;;;42.97;32.60;;;7.60;61.80;;;;;;5049993;28;20041;-63
2021/12/03 03:04:33;;;;;;;48.17;34.40;;;7.50;61.10;;;;;;5050108;28;20472;-63
2021/12/03 03:07:00;;;;;;;44.17;31.77;;;7.60;61.00;;;;;;5052067;28;20043;-63
2021/12/03 03:09:26;;;;;;;47.07;34.07;;;7.60;60.90;;;;;;5050840;28;20155;-63
2021/12/03 03:11:52;;;;;;;46.10;33.30;;;7.40;61.00;;;;;;5053035;28;20112;-63
2021/12/03 03:14:18;;;;;;;48.20;33.67;;;7.50;61.40;;;;;;5053077;28;20025;-63
2021/12/03 03:16:44;;;;;;;43.07;31.63;;;7.40;61.60;;;;;;5055567;28;20032;-63
2021/12/03 03:19:12;;;;;;;40.43;31.67;;;7.50;61.30;;;;;;5054519;28;20147;-63
2021/12/03 03:21:38;;;;;;;40.07;30.30;;;7.40;61.10;;;;;;5055303;28;20517;-63
2021/12/03 03:24:07;;;;;;;42.23;31.60;;;7.40;60.60;;;;;;5053697;28;20025;-63
2021/12/03 03:26:39;;;;;;;42.10;30.87;;;7.50;61.00;;;;;;5055029;28;20021;-63
2021/12/03 03:29:08;;;;;;;40.80;30.83;;;7.40;60.40;;;;;;5053522;28;20123;-63
2021/12/03 03:31:36;;;;;;;40.57;30.20;;;7.50;60.70;;;;;;5047927;28;20047;-63
2021/12/03 03:34:03;;;;;;;39.50;29.27;;;7.60;61.10;;;;;;5052724;28;20029;-63
2021/12/03 03:36:32;;;;;;;39.33;30.10;;;7.60;60.90;;;;;;5052818;28;20033;-63
2021/12/03 03:38:58;;;;;;;38.97;29.57;;;7.60;60.30;;;;;;5050971;28;20037;-63
2021/12/03 03:41:24;;;;;;;42.07;31.03;;;7.70;60.50;;;;;;5056262;28;20087;-63
2021/12/03 03:43:50;;;;;;;40.83;30.87;;;7.70;60.30;;;;;;5055069;28;20025;-63
2021/12/03 03:46:16;;;;;;;43.93;31.23;;;7.70;60.60;;;;;;5053486;28;20116;-63
2021/12/03 03:48:42;;;;;;;39.47;31.27;;;7.60;60.50;;;;;;5055052;28;20021;-63
2021/12/03 03:51:08;;;;;;;41.80;31.70;;;7.60;60.20;;;;;;5053694;28;20056;-63
2021/12/03 03:54:12;;;;;;;39.87;31.20;;;7.70;60.60;;;;;;5050875;28;20039;-63
2021/12/03 03:56:38;;;;;;;38.83;31.33;;;7.70;61.10;;;;;;5047477;28;20494;-63
2021/12/03 03:59:04;;;;;;;42.87;29.37;;;7.60;60.50;;;;;;5052570;28;20028;-63
2021/12/03 04:01:30;;;;;;;42.97;29.60;;;7.50;60.10;;;;;;5054890;28;20072;-63
2021/12/03 04:03:55;;;;;;;39.73;29.53;;;7.50;60.20;;;;;;5054170;28;20040;-63
2021/12/03 04:06:22;;;;;;;39.60;27.93;;;7.50;60.10;;;;;;5053070;28;20486;-63
2021/12/03 04:08:48;;;;;;;41.87;29.43;;;7.50;59.80;;;;;;5054542;28;20025;-63
2021/12/03 04:11:16;;;;;;;35.10;27.83;;;7.40;59.70;;;;;;5052170;28;20032;-63
2021/12/03 04:13:43;;;;;;;39.83;28.03;;;7.40;59.60;;;;;;5053155;28;20103;-62
2021/12/03 04:16:09;;;;;;;35.30;27.27;;;7.40;59.60;;;;;;5046099;28;20021;-63
2021/12/03 04:18:35;;;;;;;37.87;28.53;;;7.40;59.80;;;;;;5054446;28;20021;-63
2021/12/03 04:21:01;;;;;;;42.20;27.57;;;7.40;59.40;;;;;;5044052;28;20375;-63
2021/12/03 04:23:26;;;;;;;42.30;28.90;;;7.40;59.60;;;;;;5053479;28;20037;-63
2021/12/03 04:25:52;;;;;;;41.70;30.47;;;7.40;59.20;;;;;;5049719;28;20425;-63
2021/12/03 04:28:19;;;;;;;38.40;27.83;;;7.40;59.50;;;;;;5052809;28;20071;-63
2021/12/03 04:30:46;;;;;;;40.83;28.90;;;7.40;59.30;;;;;;5051342;28;20056;-63
2021/12/03 04:33:12;;;;;;;39.93;27.97;;;7.40;59.70;;;;;;5053720;28;20544;-63
2021/12/03 04:35:38;;;;;;;42.90;30.50;;;7.40;59.40;;;;;;5049878;28;20029;-63
2021/12/03 04:38:05;;;;;;;39.77;30.07;;;7.40;59.60;;;;;;5053938;28;20101;-63
2021/12/03 04:40:31;;;;;;;40.47;29.50;;;7.40;59.70;;;;;;5045712;28;20036;-63
2021/12/03 04:42:57;;;;;;;39.93;30.10;;;7.40;59.60;;;;;;5053479;28;20033;-62
2021/12/03 04:45:25;;;;;;;42.20;29.83;;;7.40;59.50;;;;;;5051513;28;20040;-63
2021/12/03 04:47:52;;;;;;;35.27;27.80;;;7.40;59.50;;;;;;5052600;28;20129;-63
2021/12/03 04:50:20;;;;;;;39.10;29.57;;;7.40;59.40;;;;;;5050407;28;20387;-63
2021/12/03 04:52:46;;;;;;;40.50;30.00;;;7.30;59.20;;;;;;5051510;28;20033;-63
2021/12/03 04:55:13;;;;;;;40.90;29.43;;;7.20;59.20;;;;;;5049180;28;20032;-63
2021/12/03 04:57:40;;;;;;;41.67;29.37;;;7.20;59.30;;;;;;5052744;28;20468;-63
2021/12/03 05:00:11;;;;;;;44.17;30.93;;;7.20;59.70;;;;;;5051733;28;20033;-63
2021/12/03 05:02:37;;;;;;;40.90;29.63;;;7.20;59.10;;;;;;5044129;28;20045;-63
2021/12/03 05:05:05;;;;;;;44.07;30.13;;;7.20;59.30;;;;;;5051594;28;20458;-63
2021/12/03 05:07:57;;;;;;;46.70;29.57;;;7.20;59.50;;;;;;5044515;28;20029;-63
2021/12/03 05:10:24;;;;;;;41.73;28.80;;;;;;;;;;5051608;28;20660;-63
2021/12/03 05:12:50;;;;;;;40.90;29.53;;;7.10;59.00;;;;;;5052404;28;20394;-63
2021/12/03 05:15:16;;;;;;;40.50;29.93;;;7.20;59.80;;;;;;5050368;28;20059;-63
2021/12/03 05:17:41;;;;;;;40.83;29.90;;;7.20;59.60;;;;;;5053006;28;20032;-63
2021/12/03 05:20:07;;;;;;;42.60;30.07;;;7.20;59.80;;;;;;5051335;28;20115;-63
2021/12/03 05:22:33;;;;;;;46.23;32.27;;;7.20;59.90;;;;;;5051800;28;20399;-63
2021/12/03 05:24:58;;;;;;;44.10;29.27;;;7.20;59.90;;;;;;5052888;28;20025;-63
2021/12/03 05:27:24;;;;;;;43.47;30.33;;;7.20;59.70;;;;;;5044610;28;20042;-63
2021/12/03 05:29:50;;;;;;;40.80;29.87;;;7.20;59.60;;;;;;5051690;28;20386;-63
2021/12/03 05:32:20;;;;;;;42.57;31.20;;;7.20;60.60;;;;;;5051804;28;20222;-63
2021/12/03 05:34:46;;;;;;;42.80;31.27;;;7.20;60.00;;;;;;5046066;28;20025;-63
2021/12/03 05:37:11;;;;;;;40.33;29.63;;;7.20;60.00;;;;;;5044200;28;20086;-63
2021/12/03 05:39:38;;;;;;;46.97;32.20;;;7.30;60.00;;;;;;5053163;28;20029;-63
2021/12/03 05:42:05;;;;;;;41.50;30.33;;;7.30;59.80;;;;;;5050760;28;20136;-63
2021/12/03 05:44:31;;;;;;;44.33;32.60;;;7.20;59.90;;;;;;5051924;28;20035;-63
2021/12/03 05:46:58;;;;;;;45.37;31.93;;;7.20;59.80;;;;;;5050631;28;20044;-63
2021/12/03 05:49:24;;;;;;;41.83;30.67;;;7.30;60.20;;;;;;5052323;28;20064;-63
2021/12/03 05:51:50;;;;;;;43.30;30.97;;;7.30;59.90;;;;;;5045768;28;20486;-63
2021/12/03 05:54:15;;;;;;;43.77;30.90;;;7.30;60.00;;;;;;5049850;28;20242;-63
2021/12/03 05:56:41;;;;;;;43.00;29.93;;;7.30;59.70;;;;;;5043972;28;20123;-63
2021/12/03 05:59:07;;;;;;;44.07;30.90;;;7.30;60.00;;;;;;5052491;28;20078;-63
2021/12/03 06:01:32;;;;;;;45.17;31.03;;;7.20;59.90;;;;;;5050950;28;20126;-63
2021/12/03 06:03:58;;;;;;;40.80;30.23;;;7.20;59.90;;;;;;5052590;28;20021;-63
2021/12/03 06:06:24;;;;;;;45.10;31.87;;;7.20;60.30;;;;;;5044334;28;20033;-63
2021/12/03 06:08:49;;;;;;;44.23;31.93;;;7.20;60.00;;;;;;5052555;28;20028;-63
2021/12/03 06:11:16;;;;;;;43.67;29.90;;;7.20;59.90;;;;;;5048853;28;20021;-63
2021/12/03 06:13:41;;;;;;;45.03;30.90;;;7.20;61.10;;;;;;5046963;28;20046;-63
2021/12/03 06:16:09;;;;;;;41.23;31.17;;;7.30;60.40;;;;;;5048220;28;20029;-63
2021/12/03 06:18:35;;;;;;;50.10;32.93;;;7.30;60.10;;;;;;5052512;28;20489;-63
2021/12/03 06:21:03;;;;;;;42.57;30.40;;;7.20;59.90;;;;;;5051144;28;20037;-63
2021/12/03 06:23:29;;;;;;;42.80;29.43;;;7.20;60.00;;;;;;5045770;28;20037;-63
2021/12/03 06:25:55;;;;;;;42.83;30.80;;;7.20;60.70;;;;;;5046968;28;20025;-63
2021/12/03 06:28:21;;;;;;;38.83;30.20;;;7.20;60.70;;;;;;5050981;28;20063;-62
2021/12/03 06:30:47;;;;;;;43.40;29.37;;;7.20;60.20;;;;;;5051386;28;20025;-63
2021/12/03 06:33:13;;;;;;;40.63;30.07;;;7.20;60.20;;;;;;5051591;28;20025;-63
2021/12/03 06:35:38;;;;;;;40.83;29.87;;;7.20;60.40;;;;;;5050404;28;20040;-63
2021/12/03 06:38:04;;;;;;;42.17;30.13;;;7.20;60.40;;;;;;5045634;28;20120;-63
2021/12/03 06:40:30;;;;;;;47.10;29.63;;;7.20;60.70;;;;;;5048308;28;20470;-62
2021/12/03 06:42:55;;;;;;;39.13;30.43;;;7.20;60.60;;;;;;5050842;28;20044;-63
2021/12/03 06:45:22;;;;;;;38.83;29.23;;;7.20;60.10;;;;;;5050819;28;20025;-63
2021/12/03 06:47:47;;;;;;;40.87;31.40;;;7.20;60.40;;;;;;5053764;28;20033;-62
2021/12/03 06:50:17;;;;;;;45.33;31.20;;;7.20;60.40;;;;;;5055646;28;20029;-63
2021/12/03 06:52:47;;;;;;;47.13;30.97;;;7.20;60.10;;;;;;5052988;28;20079;-63
2021/12/03 06:55:14;;;;;;;43.67;31.53;;;7.20;60.30;;;;;;5049394;28;20028;-63
2021/12/03 06:57:44;;;;;;;41.23;30.90;;;7.20;60.60;;;;;;5054725;28;20028;-63
2021/12/03 07:00:11;;;;;;;44.43;31.47;;;7.20;60.10;;;;;;5055116;28;20382;-62
2021/12/03 07:02:37;;;;;;;46.50;30.80;;;7.30;60.20;;;;;;5054119;28;20077;-63
2021/12/03 07:05:04;;;;;;;43.43;31.90;;;7.30;60.00;;;;;;5055716;28;20044;-63
2021/12/03 07:07:30;;;;;;;42.77;31.50;;;7.40;60.00;;;;;;5054893;28;20044;-62
2021/12/03 07:09:56;;;;;;;45.87;32.03;;;7.40;60.80;;;;;;5055135;28;20758;-63
2021/12/03 07:12:22;;;;;;;46.00;31.80;;;7.40;60.40;;;;;;5053953;28;20029;-63
2021/12/03 07:14:47;;;;;;;45.73;31.00;;;7.40;60.20;;;;;;5052664;28;20064;-63
2021/12/03 07:17:13;;;;;;;42.53;30.57;;;7.40;60.50;;;;;;5054121;28;20091;-63
2021/12/03 07:19:39;;;;;;;43.67;30.93;;;7.40;60.40;;;;;;5052677;28;20048;-63
2021/12/03 07:22:05;;;;;;;44.60;31.27;;;7.30;60.50;;;;;;5054100;28;20146;-63
2021/12/03 07:24:30;;;;;;;44.07;32.07;;;7.40;60.80;;;;;;5055402;28;20066;-63
2021/12/03 07:26:56;;;;;;;47.00;31.83;;;7.40;60.90;;;;;;5053618;28;20037;-63
2021/12/03 07:29:21;;;;;;;44.10;32.07;;;7.50;60.80;;;;;;5055273;28;20033;-63
2021/12/03 07:31:47;;;;;;;46.57;31.70;;;7.50;60.80;;;;;;5054179;28;20037;-63
2021/12/03 07:34:14;;;;;;;44.40;30.80;;;7.50;60.70;;;;;;5055081;28;20390;-63
2021/12/03 07:36:40;;;;;;;42.57;30.57;;;7.50;61.20;;;;;;5053011;28;20494;-63
2021/12/03 07:39:06;;;;;;;44.10;31.93;;;7.60;61.60;;;;;;5053323;28;20039;-63
2021/12/03 07:41:32;;;;;;;44.30;31.00;;;7.70;61.40;;;;;;5054106;28;20402;-62
2021/12/03 07:43:58;;;;;;;38.53;29.30;;;7.70;61.10;;;;;;5054874;28;20028;-63
2021/12/03 07:46:24;;;;;;;45.07;32.37;;;7.70;61.00;;;;;;5054290;28;20017;-63
2021/12/03 07:48:50;;;;;;;47.63;32.53;;;7.70;60.80;;;;;;5052829;28;20170;-62
2021/12/03 07:51:17;;;;;;;47.00;31.47;;;7.80;60.90;;;;;;5052532;28;20127;-63
2021/12/03 07:53:43;;;;;;;48.40;31.63;;;7.80;60.90;;;;;;5049208;28;20075;-63
2021/12/03 07:56:09;;;;;;;49.10;32.37;;;7.80;60.60;;;;;;5053642;28;20095;-63
2021/12/03 07:58:36;;;;;;;47.43;32.70;;;7.90;60.90;;;;;;5054349;28;20418;-63
2021/12/03 08:01:01;;;;;;;44.53;31.03;;;7.90;60.30;;;;;;5052593;28;20036;-63
2021/12/03 08:03:27;;;;;;;47.70;31.10;;;7.90;60.60;;;;;;5053846;28;20037;-63
2021/12/03 08:05:53;;;;;;;49.87;33.73;;;7.90;60.30;;;;;;5049784;28;20041;-63
2021/12/03 08:08:23;;;;;;;45.57;33.00;;;8.10;60.50;;;;;;5052458;28;20040;-63
2021/12/03 08:10:50;;;;;;;46.57;32.40;;;8.00;60.30;;;;;;5053183;28;20500;-63
2021/12/03 08:13:16;;;;;;;45.77;32.47;;;8.00;59.80;;;;;;5054156;28;20033;-63
2021/12/03 08:15:42;;;;;;;50.47;34.23;;;8.00;59.90;;;;;;5054228;28;20104;-63
2021/12/03 08:18:07;;;;;;;49.10;33.73;;;8.00;60.40;;;;;;5050415;28;20553;-63
2021/12/03 08:20:33;;;;;;;45.30;34.40;;;8.00;59.70;;;;;;5047691;28;20037;-63
2021/12/03 08:22:59;;;;;;;48.03;33.27;;;8.00;60.00;;;;;;5050406;28;20041;-63
2021/12/03 08:25:26;;;;;;;50.40;33.67;;;8.00;60.20;;;;;;5052018;28;20052;-63
2021/12/03 08:27:53;;;;;;;48.23;33.97;;;8.10;60.00;;;;;;5047930;28;20140;-63
2021/12/03 08:30:18;;;;;;;46.97;33.30;;;8.10;60.10;;;;;;5047097;28;20033;-63
2021/12/03 08:32:44;;;;;;;48.10;35.00;;;8.20;60.10;;;;;;5052491;28;20423;-63
2021/12/03 08:35:10;;;;;;;52.93;35.73;;;8.20;60.00;;;;;;5052758;28;20029;-63
2021/12/03 08:37:37;;;;;;;44.10;33.40;;;8.20;60.50;;;;;;5050766;28;20045;-62
2021/12/03 08:40:05;;;;;;;46.87;33.67;;;8.20;60.20;;;;;;5053941;28;20028;-63
2021/12/03 08:42:31;;;;;;;49.73;36.27;;;8.20;60.30;;;;;;5047988;28;20061;-62
2021/12/03 08:44:58;;;;;;;49.77;34.80;;;8.20;59.90;;;;;;5051513;28;20052;-63
2021/12/03 08:47:24;;;;;;;50.83;34.93;;;8.20;59.90;;;;;;5063208;28;20033;-63
2021/12/03 08:49:55;;;;;;;41.00;29.13;;;8.20;59.30;;;;;;5048995;28;20021;-64
2021/12/03 08:54:52;;;;;;;32.37;22.60;;;8.30;51.70;;;;;;5053301;28;20029;-63
2021/12/03 08:57:21;;;;;;;29.80;21.77;;;8.30;52.90;;;;;;5050591;28;20028;-63
2021/12/03 08:59:48;;;;;;;32.73;23.83;;;8.30;51.70;;;;;;5052658;28;20035;-63
2021/12/03 09:02:13;;;;;;;45.50;30.77;;;8.30;52.80;;;;;;5051147;28;20461;-63
2021/12/03 09:04:39;;;;;;;44.13;31.77;;;8.30;54.50;;;;;;5053046;28;20057;-63
2021/12/03 09:07:05;;;;;;;39.23;30.27;;;8.30;54.90;;;;;;5051784;28;20029;-63
2021/12/03 09:09:31;;;;;;;43.70;32.10;;;8.30;54.90;;;;;;5048479;28;20395;-63
2021/12/03 09:11:57;;;;;;;42.73;31.47;;;8.30;54.60;;;;;;5045378;28;20535;-63
2021/12/03 09:17:15;;;;;;;44.73;31.83;;;8.40;53.90;;;;;;5048540;28;20037;-63
2021/12/03 09:22:27;;;;;;;;;;;8.40;54.60;;;;;;5049234;28;20518;-63
2021/12/03 09:24:54;;;;;;;36.47;26.60;;;8.40;52.70;;;;;;5052286;28;19915;-63
2021/12/03 09:27:20;;;;;;;39.83;27.33;;;8.40;48.70;;;;;;5050965;28;20063;-62
2021/12/03 09:29:47;;;;;;;46.60;30.23;;;8.40;52.20;;;;;;5052827;28;20467;-63
2021/12/03 09:32:20;;;;;;;44.77;31.33;;;8.50;52.90;;;;;;5048176;28;20017;-63
2021/12/03 09:34:46;;;;;;;45.07;30.83;;;8.50;52.30;;;;;;5049621;28;20485;-63
2021/12/03 09:37:12;;;;;;;37.80;28.70;;;8.50;52.30;;;;;;5049925;28;20079;-63
2021/12/03 09:39:41;;;;;;;37.63;26.93;;;8.60;51.80;;;;;;5051200;28;20037;-63
2021/12/03 09:42:07;;;;;;;34.77;24.83;;;8.60;50.40;;;;;;5049723;28;20179;-63
2021/12/03 09:44:33;;;;;;;32.37;24.80;;;8.60;48.40;;;;;;5050571;28;20115;-63
2021/12/03 09:47:00;;;;;;;30.90;23.03;;;8.60;49.20;;;;;;5050882;28;20024;-62
2021/12/03 09:49:37;;;;;;;35.67;25.53;;;8.70;48.50;;;;;;5051221;28;20501;-63
2021/12/03 09:52:15;;;;;;;41.77;26.60;;;8.70;47.60;;;;;;5045253;28;20086;-63
2021/12/03 09:54:47;;;;;;;38.40;27.33;;;8.80;48.30;;;;;;5051399;28;20452;-64
2021/12/03 10:05:46;;;;;;;41.10;25.97;;;8.80;44.40;;;;;;5048245;28;20055;-64
2021/12/03 10:13:46;;;;;;;28.48;20.85;;;8.90;45.30;;;;;;5045761;28;20610;-63
2021/12/03 10:18:49;;;;;;;30.40;18.67;;;9.00;43.30;;;;;;5046452;28;20041;-62
2021/12/03 10:21:46;;;;;;;30.40;18.53;;;9.10;39.90;;;;;;5047741;28;20021;-63
2021/12/03 10:30:12;;;;;;;30.57;19.57;;;9.30;44.00;;;;;;5046131;28;20029;-63
2021/12/03 10:33:34;;;;;;;36.23;20.47;;;9.30;45.10;;;;;;5048434;28;20242;-63
2021/12/03 10:39:03;;;;;;;30.13;20.93;;;9.30;45.60;;;;;;5049269;28;20063;-63
2021/12/03 10:41:40;;;;;;;31.47;21.17;;;9.30;47.10;;;;;;5037376;28;20033;-64
2021/12/03 10:44:31;;;;;;;37.75;24.08;;;9.40;45.80;;;;;;5046862;28;20409;-63
2021/12/03 10:49:58;;;;;;;44.80;29.53;;;9.40;51.30;;;;;;5013248;28;20033;-63
2021/12/03 10:52:35;;;;;;;43.53;31.23;;;9.40;56.70;;;;;;5046448;28;20044;-63
2021/12/03 10:55:55;;;;;;;48.03;30.87;;;9.40;58.10;;;;;;5049294;28;20028;-63
2021/12/03 12:44:01;;;;;;;11.37;8.30;;;10.20;26.80;;;;;;5046666;28;20090;-64
2021/12/03 14:47:30;;;;;;;7.40;5.30;;;10.80;20.00;;;;;;5051172;28;20383;-63
2021/12/03 14:52:47;;;;;;;6.63;4.10;;;10.80;18.70;;;;;;5045896;28;20025;-63
2021/12/03 14:55:29;;;;;;;7.93;4.25;;;10.70;20.30;;;;;;5051878;28;20037;-63
2021/12/03 14:58:02;;;;;;;5.95;4.47;;;10.60;19.80;;;;;;5050319;28;20025;-64
2021/12/03 15:08:31;;;;;;;10.20;5.53;;;10.50;20.80;;;;;;5046272;28;20156;-62
2021/12/03 15:19:06;;;;;;;14.68;6.40;;;10.30;20.70;;;;;;5053271;28;20040;-63
2021/12/03 15:32:18;;;;;;;10.07;6.13;;;10.10;20.20;;;;;;5054391;28;20033;-63
2021/12/03 15:38:35;;;;;;;11.10;5.68;;;10.00;22.00;;;;;;5040451;28;20040;-63
2021/12/03 16:10:45;;;;;;;11.57;4.40;;;9.50;25.90;;;;;;5049199;28;20044;-63
2021/12/03 16:13:24;;;;;;;7.88;4.95;;;9.50;25.20;;;;;;5048381;28;20036;-62
2021/12/03 16:45:18;;;;;;;7.80;5.60;;;9.30;26.00;;;;;;5053534;28;20175;-62
2021/12/03 16:51:01;;;;;;;10.10;5.53;;;9.20;26.10;;;;;;5041088;28;20483;-62
2021/12/03 16:53:29;;;;;;;;;;;9.10;24.70;;;;;;5052640;28;20017;-63
2021/12/03 16:58:41;;;;;;;10.57;5.45;;;9.00;26.20;;;;;;5051894;28;20134;-62
2021/12/03 17:15:17;;;;;;;11.80;7.73;;;9.00;29.00;;;;;;4988991;28;20031;-63
2021/12/03 18:00:01;;;;;;;19.47;12.43;;;8.70;30.20;;;;;;5027241;28;20048;-63
2021/12/03 18:02:41;;;;;;;16.40;10.07;;;8.70;31.10;;;;;;5029973;28;20041;-62
2021/12/03 18:45:51;;;;;;;12.03;7.90;;;8.80;34.00;;;;;;5049976;28;20118;-63
2021/12/03 18:53:45;;;;;;;12.53;8.60;;;8.70;34.00;;;;;;5055055;28;20033;-63
2021/12/03 18:56:15;;;;;;;14.93;9.00;;;8.70;33.50;;;;;;5054576;28;20029;-63
2021/12/03 18:58:40;;;;;;;13.18;9.02;;;8.70;33.50;;;;;;5054293;28;20033;-63
2021/12/03 19:01:06;;;;;;;16.30;9.90;;;8.70;32.70;;;;;;5050250;28;20070;-63
2021/12/03 19:03:49;;;;;;;15.07;10.17;;;8.80;32.90;;;;;;5054445;28;20155;-63
2021/12/03 19:06:23;;;;;;;14.10;9.77;;;8.70;33.70;;;;;;5049216;28;20032;-63
2021/12/03 19:09:52;;;;;;;16.00;10.00;;;8.70;34.30;;;;;;5054730;28;20490;-63
2021/12/03 19:14:16;;;;;;;13.90;9.07;;;8.70;33.60;;;;;;5052997;28;20116;-63
2021/12/03 19:16:42;;;;;;;20.23;9.60;;;8.70;33.60;;;;;;5055587;28;20025;-63
2021/12/03 19:19:09;;;;;;;12.07;8.87;;;8.70;35.10;;;;;;5052592;28;20492;-63
2021/12/03 19:21:43;;;;;;;15.90;8.40;;;8.70;35.80;;;;;;5052608;28;20103;-63
2021/12/03 19:24:11;;;;;;;14.53;8.60;;;8.70;35.40;;;;;;5053744;28;20158;-63
2021/12/03 19:26:44;;;;;;;10.40;8.60;;;8.80;35.80;;;;;;5053782;28;20086;-63
2021/12/03 19:29:12;;;;;;;14.73;9.20;;;8.70;34.80;;;;;;5052699;28;20534;-63
2021/12/03 19:31:39;;;;;;;14.43;9.30;;;8.70;34.80;;;;;;5053769;28;20167;-63
2021/12/03 19:34:05;;;;;;;13.97;10.23;;;8.70;35.20;;;;;;5053584;28;20032;-63
2021/12/03 19:36:37;;;;;;;13.10;9.13;;;8.70;35.80;;;;;;5053098;28;20490;-63
2021/12/03 19:39:03;;;;;;;16.57;9.23;;;8.60;34.80;;;;;;5045197;28;20039;-63
2021/12/03 19:41:48;;;;;;;13.83;8.87;;;8.60;36.40;;;;;;5054089;28;20021;-62
2021/12/03 19:44:18;;;;;;;11.05;8.65;;;8.50;36.00;;;;;;5052732;28;20017;-62
2021/12/03 19:46:47;;;;;;;17.43;11.47;;;8.50;40.60;;;;;;5054104;28;20226;-62
2021/12/03 19:51:57;;;;;;;13.73;8.60;;;8.60;42.00;;;;;;5054608;28;20083;-62
2021/12/03 19:54:23;;;;;;;11.43;7.67;;;8.60;44.00;;;;;;5052608;28;20028;-62
2021/12/03 19:56:50;;;;;;;11.13;6.87;;;8.60;43.20;;;;;;5052997;28;20041;-63
2021/12/03 19:59:18;;;;;;;23.50;13.47;;;8.60;43.40;;;;;;5053369;28;20055;-62
2021/12/03 20:01:44;;;;;;;44.67;25.67;;;8.50;41.60;;;;;;5054422;28;20029;-62
2021/12/03 20:04:09;;;;;;;24.23;15.57;;;8.60;43.30;;;;;;5053433;28;20079;-62
2021/12/03 20:06:39;;;;;;;19.57;12.93;;;8.50;44.20;;;;;;5054084;28;20102;-62
2021/12/03 20:09:07;;;;;;;21.13;12.17;;;8.50;44.00;;;;;;5047215;28;20025;-62
2021/12/03 20:12:34;;;;;;;22.03;12.77;;;8.50;44.40;;;;;;5051809;28;20410;-62
2021/12/03 20:14:28;;;;;;;15.32;9.50;;;8.50;44.80;;;;;;5038839;28;20064;-62
2021/12/03 20:17:07;;;;;;;14.93;8.77;;;8.50;45.60;;;;;;5052384;28;20114;-62
2021/12/03 20:19:36;;;;;;;10.27;6.97;;;8.40;45.40;;;;;;5049225;28;20044;-62
2021/12/03 20:22:08;;;;;;;13.60;8.17;;;8.50;44.40;;;;;;5049372;28;20082;-62
2021/12/03 20:25:14;;;;;;;7.83;7.03;;;8.60;44.00;;;;;;5051849;28;20352;-63
2021/12/03 20:27:23;;;;;;;12.47;7.33;;;8.50;45.30;;;;;;5047693;28;20037;-63
2021/12/03 20:30:03;;;;;;;11.03;7.43;;;8.50;45.10;;;;;;5043814;28;20109;-62
2021/12/03 20:37:41;;;;;;;12.03;8.57;;;8.50;44.70;;;;;;5054081;28;20037;-63
2021/12/03 20:40:17;;;;;;;14.90;10.10;;;8.50;45.30;;;;;;5046323;28;20059;-63